Capitol Logistics 260




KBOS
Logan International Airport
Boston, Massachusetts
KIAD
Washington Dulles International Airport
Dulles, Virginia

Activity Log

Date Flight Route Aircraft Duration
12/12/2021 CPX260 BLZZR5 BLZZR BAF HYPER8 B752 1h 31m
08/29/2021 CPX260 REVSS4 REVSS CTR HNK J49 PSB MAPEL3 B763 1h 18m
05/12/2020 CPX260 KBOS/33L PATSS5 PATSS BIGGY MXE HYPER7 KIAD/I01C B763 1h 29m
03/25/2020 CPX260 KBOS/04R PATSS5 PATSS BIGGY MXE HYPER7 KIAD/I01C B763 1h 33m
03/17/2020 CPX260 PATSS5 PATSS BIGGY MXE HYPER7 B763 1h 33m
01/15/2020 CPX260 PATSS5 PATSS BIGGY MXE HYPER7 B763 1h 48m
12/25/2019 CPX260 BLZZR4 BLZZR BAF HYPER7 B763 1h 30m
12/11/2019 CPX260 BLZZR4 BLZZR BAF HYPER7 B763 1h 31m
11/01/2019 CPX260 BLZZR4 BLZZR NELIE J75 SBJ MXE HYPER7 B763 1h 42m
05/29/2019 CPX260 BLZZR4 BLZZR BAF HYPER7 B763 1h 20m

Route Details

Aircraft Information
Group: Narrowbodies
Types: B738,B752
Route Data
Demand: M
Distance: 359nm
Duration: 1h 25m
Recm'd Route: REVSS4 REVSS CTR HNK J49 PSB MAPEL3
Origin Wx: KBOS 241954Z 09011KT 10SM FEW050 SCT250 14/08 A3035 RMK AO2 SLP278 T01390083
Dest. Wx: KIAD 241959Z 08010KT 10SM OVC017 16/13 A3024 RMK AO2 T01610128
Notes:

Financial History
Total Freight: 823,794lbs
Average Load: 82,379lbs/flt
Fuel Used: 139,926lbs
Avg. Fuel Used: 13,993lbs/flt
Fuel Expense: $145,955
Avg. Fuel Expense: $14,596
Avg. Fuel Cost: $1.00/lbs
Total Gross Income: $1,193,770
Pilot Pay: $2,030
Total Expenses: $137,030
Total Revenue: $915,426
Average Revenue: $119,376.97